Time;durP1;ratioP1;P1;durP2;ratioP2;P2;SDS_P1;SDS_P2;PMS_P1;PMS_P2;Temp;Humidity;BMP_temperature;BMP_pressure;BME280_temperature;BME280_humidity;BME280_pressure;Samples;Min_cycle;Max_cycle;Signal;HPM_P1;HPM_P2
2023/02/24 00:02:00;;;;;;;121.25;79.75;;;10.30;99.90;;;;;;5031960;28;20069;-81
2023/02/24 00:05:04;;;;;;;122.15;80.55;;;10.40;99.90;;;;;;5031935;28;20052;-81
2023/02/24 00:08:08;;;;;;;138.65;83.93;;;10.50;99.90;;;;;;5031949;28;20060;-81
2023/02/24 00:11:15;;;;;;;146.27;91.25;;;10.50;99.90;;;;;;5031036;28;20045;-81
2023/02/24 00:14:20;;;;;;;137.85;87.93;;;10.70;99.90;;;;;;5032035;28;20393;-82
2023/02/24 00:17:26;;;;;;;142.27;89.65;;;;;;;;;;5031861;28;20424;-81
2023/02/24 00:20:32;;;;;;;136.55;86.00;;;10.30;99.90;;;;;;5031671;28;20048;-81
2023/02/24 00:23:37;;;;;;;133.85;81.43;;;10.40;99.90;;;;;;5031499;28;20048;-82
2023/02/24 00:26:41;;;;;;;137.93;85.15;;;9.50;99.90;;;;;;5031651;28;20048;-81
2023/02/24 00:29:46;;;;;;;137.70;86.57;;;7.50;99.90;;;;;;5031650;28;20131;-81
2023/02/24 00:32:50;;;;;;;126.45;78.45;;;11.40;99.90;;;;;;5031377;28;20045;-81
2023/02/24 00:35:54;;;;;;;111.03;72.43;;;10.30;99.90;;;;;;5042097;28;20048;-81
2023/02/24 00:39:01;;;;;;;114.72;74.28;;;10.20;99.90;;;;;;5030540;28;20049;-81
2023/02/24 00:42:06;;;;;;;122.80;78.90;;;12.10;99.90;;;;;;5031338;28;20041;-81
2023/02/24 00:45:12;;;;;;;133.48;78.85;;;10.20;99.90;;;;;;5030463;28;20060;-81
2023/02/24 00:48:16;;;;;;;130.32;81.15;;;9.90;99.90;;;;;;5031387;28;20036;-81
2023/02/24 00:51:22;;;;;;;130.13;83.45;;;;;;;;;;5041836;28;20052;-81
2023/02/24 00:54:27;;;;;;;125.90;82.15;;;10.30;99.90;;;;;;5030231;28;20512;-81
2023/02/24 00:57:32;;;;;;;125.30;77.30;;;10.40;99.90;;;;;;5031039;28;20048;-81
2023/02/24 01:00:36;;;;;;;130.95;78.32;;;10.40;99.90;;;;;;5031007;28;20044;-81
2023/02/24 01:03:41;;;;;;;128.60;73.35;;;10.70;99.90;;;;;;5030093;28;20052;-81
2023/02/24 01:06:48;;;;;;;117.65;71.35;;;10.90;99.90;;;;;;5030936;28;20500;-81
2023/02/24 01:09:53;;;;;;;112.72;69.78;;;10.10;99.90;;;;;;5030985;28;20520;-81
2023/02/24 01:12:57;;;;;;;110.95;65.40;;;10.30;99.90;;;;;;5031033;28;20049;-81
2023/02/24 01:16:01;;;;;;;113.88;66.85;;;10.20;99.90;;;;;;5031039;28;20068;-81
2023/02/24 01:19:04;;;;;;;108.65;64.68;;;10.50;99.90;;;;;;5030307;28;20048;-81
2023/02/24 01:22:13;;;;;;;109.90;63.22;;;9.90;99.90;;;;;;5030605;28;20060;-81
2023/02/24 01:25:19;;;;;;;101.90;62.70;;;10.10;99.90;;;;;;5030185;28;20401;-81
2023/02/24 01:28:23;;;;;;;105.35;64.13;;;9.70;99.90;;;;;;5031006;28;20044;-81
2023/02/24 01:31:27;;;;;;;110.85;64.13;;;9.80;99.90;;;;;;5030235;28;20040;-81
2023/02/24 01:34:33;;;;;;;102.22;63.10;;;9.70;99.90;;;;;;5030888;28;20048;-81
2023/02/24 01:37:38;;;;;;;104.20;62.33;;;;;;;;;;5030879;28;20052;-80
2023/02/24 01:40:43;;;;;;;100.82;62.08;;;8.70;99.90;;;;;;5029768;28;20052;-81
2023/02/24 01:44:28;;;;;;;100.20;60.60;;;9.90;99.90;;;;;;5032573;28;20053;-81
2023/02/24 01:47:32;;;;;;;90.85;57.17;;;9.70;99.90;;;;;;5033702;28;20053;-81
2023/02/24 01:50:37;;;;;;;97.38;58.30;;;9.10;99.90;;;;;;5033885;28;20519;-81
2023/02/24 01:53:41;;;;;;;105.53;59.47;;;9.50;99.90;;;;;;5034590;28;20045;-80
2023/02/24 01:56:52;;;;;;;96.85;58.35;;;9.60;99.90;;;;;;5034777;28;20061;-80
2023/02/24 02:00:10;;;;;;;99.60;58.67;;;;;;;;;;5033686;28;20401;-80
2023/02/24 02:03:34;;;;;;;97.65;57.15;;;9.50;99.90;;;;;;5034266;28;20052;-80
2023/02/24 02:06:41;;;;;;;102.95;60.28;;;9.60;99.90;;;;;;5034394;28;20053;-81
2023/02/24 02:09:47;;;;;;;95.15;57.85;;;11.20;99.90;;;;;;5033663;28;20048;-81
2023/02/24 02:12:51;;;;;;;95.78;58.40;;;9.70;99.90;;;;;;5034494;28;20565;-81
2023/02/24 02:16:07;;;;;;;99.07;59.17;;;9.70;99.90;;;;;;5034223;28;20048;-81
2023/02/24 02:19:36;;;;;;;98.28;59.05;;;10.60;99.90;;;;;;5033517;28;20040;-81
2023/02/24 02:23:07;;;;;;;100.78;58.00;;;9.90;99.90;;;;;;5033329;28;20056;-82
2023/02/24 02:26:52;;;;;;;98.82;55.50;;;9.80;99.90;;;;;;5033255;28;20052;-81
2023/02/24 02:30:05;;;;;;;92.80;57.90;;;9.40;99.90;;;;;;5034421;28;20056;-80
2023/02/24 02:34:04;;;;;;;99.00;58.50;;;9.60;99.90;;;;;;5033945;28;20044;-81
2023/02/24 02:37:31;;;;;;;92.72;59.78;;;9.80;99.90;;;;;;5031229;28;20044;-81
2023/02/24 02:40:43;;;;;;;105.43;61.17;;;9.40;99.90;;;;;;5031819;28;20045;-81
2023/02/24 02:44:19;;;;;;;102.53;62.45;;;11.60;99.90;;;;;;5033611;28;20061;-81
2023/02/24 02:47:42;;;;;;;101.40;61.13;;;9.40;99.90;;;;;;5033815;28;20382;-82
2023/02/24 02:50:52;;;;;;;99.80;57.53;;;8.90;99.90;;;;;;5032813;28;20052;-81
2023/02/24 02:54:05;;;;;;;92.13;56.47;;;9.50;99.90;;;;;;5032893;28;20052;-80
2023/02/24 02:57:14;;;;;;;99.57;58.30;;;8.30;99.90;;;;;;5033485;28;20128;-80
2023/02/24 03:00:34;;;;;;;99.28;54.60;;;9.30;99.90;;;;;;5033280;28;20037;-80
2023/02/24 03:03:39;;;;;;;92.63;56.03;;;;;;;;;;5033280;28;20072;-81
2023/02/24 03:06:47;;;;;;;93.45;53.95;;;8.50;99.90;;;;;;5032492;28;20082;-80
2023/02/24 03:09:55;;;;;;;94.22;53.53;;;9.10;99.90;;;;;;5021155;28;20060;-81
2023/02/24 03:13:04;;;;;;;93.68;54.45;;;9.20;99.90;;;;;;5032501;28;20044;-81
2023/02/24 03:16:11;;;;;;;87.38;51.13;;;9.00;99.90;;;;;;5032352;28;20076;-81
2023/02/24 03:19:19;;;;;;;85.75;49.35;;;11.00;99.90;;;;;;5032938;28;20041;-80
2023/02/24 03:22:33;;;;;;;85.40;48.65;;;9.00;99.90;;;;;;5032650;28;20056;-81
2023/02/24 03:25:48;;;;;;;79.00;48.88;;;9.00;99.90;;;;;;5032212;28;20429;-81
2023/02/24 03:29:22;;;;;;;85.72;49.72;;;9.00;99.90;;;;;;5032179;28;20048;-81
2023/02/24 03:32:49;;;;;;;78.22;45.85;;;8.90;99.90;;;;;;5031976;28;20048;-81
2023/02/24 03:36:00;;;;;;;83.57;50.58;;;9.00;99.90;;;;;;5043199;28;20509;-81
2023/02/24 03:39:10;;;;;;;79.78;47.58;;;9.00;99.90;;;;;;5031884;28;20045;-81
2023/02/24 03:42:18;;;;;;;76.10;45.20;;;10.20;99.90;;;;;;5043235;28;20391;-81
2023/02/24 03:45:23;;;;;;;75.65;43.70;;;8.90;99.90;;;;;;5032109;28;20064;-81
2023/02/24 03:48:28;;;;;;;74.65;42.95;;;10.00;99.90;;;;;;5032864;28;20040;-80
2023/02/24 03:51:35;;;;;;;63.67;41.22;;;10.20;99.90;;;;;;5031703;28;20079;-81
2023/02/24 03:54:51;;;;;;;68.40;41.58;;;;;;;;;;5043508;28;20048;-81
2023/02/24 03:58:19;;;;;;;69.63;41.30;;;8.70;99.90;;;;;;5031523;28;20057;-80
2023/02/24 04:01:54;;;;;;;68.55;42.47;;;8.60;99.90;;;;;;5031524;28;20060;-80
2023/02/24 04:05:09;;;;;;;62.65;40.47;;;9.70;99.90;;;;;;5031153;28;20052;-81
2023/02/24 04:08:53;;;;;;;62.65;39.88;;;9.30;99.90;;;;;;5031165;28;20053;-80
2023/02/24 04:12:08;;;;;;;75.43;43.15;;;8.80;99.90;;;;;;5031974;28;20041;-80
2023/02/24 04:15:29;;;;;;;67.13;42.90;;;8.70;99.90;;;;;;5031152;28;20041;-80
2023/02/24 04:18:34;;;;;;;74.43;43.58;;;8.00;99.90;;;;;;5030916;28;20052;-80
2023/02/24 04:21:39;;;;;;;74.35;44.53;;;;;;;;;;5030922;28;20064;-81
2023/02/24 04:24:49;;;;;;;71.03;43.95;;;8.90;99.90;;;;;;5030699;28;20061;-81
2023/02/24 04:27:57;;;;;;;87.60;51.45;;;8.50;99.90;;;;;;5030870;28;20048;-80
2023/02/24 04:31:08;;;;;;;76.63;46.28;;;9.70;99.90;;;;;;5019777;28;20040;-80
2023/02/24 04:34:18;;;;;;;74.40;45.25;;;8.00;99.90;;;;;;5030730;28;20049;-80
2023/02/24 04:37:23;;;;;;;67.47;42.65;;;8.80;99.90;;;;;;5030755;28;20401;-80
2023/02/24 04:40:28;;;;;;;78.47;46.90;;;8.70;99.90;;;;;;5030743;28;20049;-81
2023/02/24 04:43:31;;;;;;;65.32;40.63;;;9.20;99.90;;;;;;5031684;28;20093;-81
2023/02/24 04:46:35;;;;;;;69.60;39.67;;;10.20;99.90;;;;;;5031340;28;20048;-81
2023/02/24 04:49:40;;;;;;;60.17;36.10;;;8.70;99.90;;;;;;5031630;28;20052;-81
2023/02/24 04:52:44;;;;;;;63.20;36.33;;;;;;;;;;5031755;28;20052;-81
2023/02/24 04:55:48;;;;;;;55.95;35.03;;;11.20;99.90;;;;;;5031623;28;20393;-80
2023/02/24 04:58:52;;;;;;;66.22;37.03;;;9.10;99.90;;;;;;5031197;28;20041;-81
2023/02/24 05:02:00;;;;;;;57.22;33.63;;;7.80;99.90;;;;;;5031003;28;20048;-81
2023/02/24 05:05:06;;;;;;;59.50;35.58;;;8.40;99.90;;;;;;5031478;28;20151;-81
2023/02/24 05:08:10;;;;;;;57.45;33.03;;;8.70;99.90;;;;;;5031177;28;20037;-81
2023/02/24 05:11:15;;;;;;;60.15;35.13;;;9.30;99.90;;;;;;5030840;28;20064;-81
2023/02/24 05:14:20;;;;;;;63.17;34.15;;;;;;;;;;5030704;28;20044;-81
2023/02/24 05:17:24;;;;;;;64.25;36.40;;;7.70;99.90;;;;;;5030571;28;20046;-82
2023/02/24 05:23:52;;;;;;;60.70;34.35;;;8.30;99.90;;;;;;5030832;28;20524;-81
2023/02/24 05:26:58;;;;;;;58.75;35.58;;;8.80;99.90;;;;;;5030974;28;20049;-81
2023/02/24 05:30:08;;;;;;;69.68;34.22;;;9.20;99.90;;;;;;5030925;28;20044;-80
2023/02/24 05:33:13;;;;;;;78.20;37.08;;;;;;;;;;5031097;28;20468;-81
2023/02/24 05:36:17;;;;;;;65.78;35.55;;;10.00;99.90;;;;;;5031127;28;20044;-81
2023/02/24 05:39:25;;;;;;;56.95;34.08;;;8.30;99.90;;;;;;5030714;28;20389;-81
2023/02/24 05:42:34;;;;;;;57.67;36.10;;;9.10;99.90;;;;;;5030799;28;20049;-81
2023/02/24 05:45:38;;;;;;;59.28;36.03;;;7.10;99.90;;;;;;5030593;28;20048;-81
2023/02/24 05:48:42;;;;;;;64.93;35.38;;;8.20;99.90;;;;;;5030864;28;20507;-81
2023/02/24 05:51:55;;;;;;;67.65;35.83;;;8.40;99.90;;;;;;5031196;28;20056;-81
2023/02/24 05:55:01;;;;;;;63.75;35.78;;;8.60;99.90;;;;;;5030423;28;20052;-81
2023/02/24 05:58:06;;;;;;;61.20;36.47;;;9.10;99.90;;;;;;5030668;28;20032;-80
2023/02/24 06:01:20;;;;;;;64.55;36.88;;;8.70;99.90;;;;;;5030718;28;20049;-81
2023/02/24 06:04:38;;;;;;;58.97;35.05;;;9.00;99.90;;;;;;5030607;28;20120;-81
2023/02/24 06:07:46;;;;;;;63.80;35.88;;;8.70;99.90;;;;;;5030266;28;20401;-81
2023/02/24 06:10:50;;;;;;;62.85;36.05;;;8.50;99.90;;;;;;5030491;28;20052;-81
2023/02/24 06:13:56;;;;;;;64.43;37.05;;;8.70;99.90;;;;;;5029823;28;20060;-81
2023/02/24 06:17:03;;;;;;;63.85;36.47;;;11.30;99.90;;;;;;5030122;28;20048;-81
2023/02/24 06:20:14;;;;;;;69.00;38.45;;;9.30;99.90;;;;;;5030320;28;20631;-81
2023/02/24 06:23:18;;;;;;;60.55;34.55;;;;;;;;;;5030696;28;20049;-74
2023/02/24 06:26:22;;;;;;;56.10;33.15;;;8.50;99.90;;;;;;5030617;28;20044;-78
2023/02/24 06:29:28;;;;;;;62.72;33.35;;;10.30;99.90;;;;;;5031871;28;20452;-76
2023/02/24 06:32:34;;;;;;;66.95;32.05;;;9.80;99.90;;;;;;5033842;28;20045;-76
2023/02/24 06:35:38;;;;;;;58.58;32.55;;;9.70;99.90;;;;;;5033941;28;20064;-77
2023/02/24 06:38:42;;;;;;;63.78;34.17;;;9.70;99.90;;;;;;5033534;28;20049;-77
2023/02/24 06:41:49;;;;;;;70.85;37.35;;;9.80;99.90;;;;;;5033561;28;20056;-76
2023/02/24 06:44:53;;;;;;;66.80;36.67;;;9.90;99.90;;;;;;5033469;28;20060;-77
2023/02/24 06:47:57;;;;;;;72.65;36.83;;;;;;;;;;5033627;28;20044;-74
2023/02/24 06:51:09;;;;;;;65.70;36.47;;;10.20;99.90;;;;;;5033630;28;20048;-73
2023/02/24 06:54:14;;;;;;;65.57;36.92;;;9.80;99.90;;;;;;5033221;28;20045;-73
2023/02/24 06:57:19;;;;;;;71.45;35.92;;;10.40;99.90;;;;;;5033643;28;20052;-77
2023/02/24 07:00:37;;;;;;;67.43;36.03;;;10.60;99.90;;;;;;5033112;28;20041;-76
2023/02/24 07:04:02;;;;;;;71.53;38.17;;;10.80;99.90;;;;;;5033208;28;20048;-76
2023/02/24 07:07:06;;;;;;;75.95;38.55;;;10.90;99.90;;;;;;5032802;28;20036;-76
2023/02/24 07:10:12;;;;;;;65.03;37.83;;;10.90;99.90;;;;;;5033437;28;20064;-76
2023/02/24 07:13:15;;;;;;;81.50;37.78;;;10.10;99.90;;;;;;5033275;28;20040;-76
2023/02/24 07:16:24;;;;;;;71.65;39.25;;;11.20;99.90;;;;;;5033401;28;20053;-72
2023/02/24 07:19:31;;;;;;;66.78;36.80;;;11.40;99.90;;;;;;5032315;28;20524;-74
2023/02/24 07:22:35;;;;;;;63.88;36.45;;;11.50;99.90;;;;;;5032689;28;20484;-76
2023/02/24 07:25:42;;;;;;;65.95;36.95;;;11.80;99.90;;;;;;5033167;28;20460;-74
2023/02/24 07:28:46;;;;;;;59.90;36.45;;;12.00;99.90;;;;;;5033118;28;20045;-74
2023/02/24 07:31:55;;;;;;;70.25;36.20;;;;;;;;;;5033076;28;20048;-74
2023/02/24 07:34:59;;;;;;;71.22;37.67;;;12.30;99.90;;;;;;5032520;28;20132;-73
2023/02/24 07:38:04;;;;;;;75.88;38.75;;;12.30;99.90;;;;;;5032453;28;20040;-78
2023/02/24 07:41:09;;;;;;;68.50;37.63;;;12.50;99.90;;;;;;5032568;28;20053;-75
2023/02/24 07:44:14;;;;;;;70.85;40.08;;;12.10;99.60;;;;;;5032290;28;20589;-77
2023/02/24 07:47:20;;;;;;;74.10;43.17;;;;;;;;;;5032214;28;20060;-74
2023/02/24 07:50:27;;;;;;;75.72;39.33;;;;;;;;;;5032093;28;20040;-74
2023/02/24 07:53:31;;;;;;;66.15;41.45;;;;;;;;;;5032411;28;20385;-75
2023/02/24 07:56:44;;;;;;;82.50;44.92;;;15.00;99.60;;;;;;5032124;28;20036;-72
2023/02/24 07:59:49;;;;;;;69.85;44.80;;;;;;;;;;5032040;28;20048;-74
2023/02/24 08:02:55;;;;;;;75.18;43.35;;;12.20;98.30;;;;;;5031973;28;20056;-75
2023/02/24 08:06:14;;;;;;;86.90;47.65;;;13.50;98.50;;;;;;5031708;28;20079;-75
2023/02/24 08:09:19;;;;;;;75.90;43.13;;;13.60;98.70;;;;;;5031888;28;20052;-75
2023/02/24 08:12:26;;;;;;;71.55;41.63;;;;;;;;;;5032127;28;20056;-74
2023/02/24 08:15:33;;;;;;;80.28;46.13;;;11.70;97.80;;;;;;5032166;28;20512;-74
2023/02/24 08:18:39;;;;;;;74.97;45.97;;;;;;;;;;5032055;28;20052;-75
2023/02/24 08:21:46;;;;;;;94.63;50.17;;;13.90;98.10;;;;;;5030958;28;20052;-74
2023/02/24 08:24:53;;;;;;;74.93;45.33;;;13.90;98.10;;;;;;5031490;28;20558;-74
2023/02/24 08:27:57;;;;;;;83.20;46.50;;;12.60;98.00;;;;;;5031950;28;20036;-73
2023/02/24 08:31:03;;;;;;;73.82;44.08;;;14.10;98.70;;;;;;5031236;28;20044;-74
2023/02/24 08:34:07;;;;;;;89.88;46.08;;;13.90;98.30;;;;;;5031298;28;20366;-75
2023/02/24 08:37:14;;;;;;;68.28;41.28;;;14.00;98.50;;;;;;5031633;28;20052;-74
2023/02/24 08:43:39;;;;;;;61.67;38.63;;;14.40;98.20;;;;;;5031648;28;20508;-74
2023/02/24 08:46:44;;;;;;;62.85;40.90;;;;;;;;;;5031563;28;20049;-73
2023/02/24 08:49:48;;;;;;;48.78;33.78;;;14.40;98.10;;;;;;5031161;28;20048;-75
2023/02/24 08:52:53;;;;;;;53.58;34.22;;;14.60;98.20;;;;;;5030225;28;20508;-75
2023/02/24 08:56:08;;;;;;;48.63;31.85;;;14.80;98.00;;;;;;5031096;28;20056;-71
2023/02/24 08:59:27;;;;;;;51.45;31.30;;;15.10;97.20;;;;;;5030878;28;20041;-75
2023/02/24 09:02:38;;;;;;;48.47;31.35;;;15.20;97.40;;;;;;5031003;28;20036;-75
2023/02/24 09:05:42;;;;;;;48.08;31.30;;;15.40;96.80;;;;;;5030816;28;20091;-75
2023/02/24 09:08:46;;;;;;;45.45;29.02;;;15.60;96.20;;;;;;5030960;28;20390;-75
2023/02/24 09:11:57;;;;;;;43.30;30.67;;;15.80;96.20;;;;;;5031053;28;20053;-75
2023/02/24 09:15:06;;;;;;;52.50;32.03;;;15.80;96.40;;;;;;5030776;28;20064;-74
2023/02/24 09:18:13;;;;;;;45.13;31.30;;;16.00;96.70;;;;;;5031271;28;20044;-74
2023/02/24 09:22:04;;;;;;;49.33;33.20;;;16.10;96.80;;;;;;5030770;28;20044;-74
2023/02/24 09:25:16;;;;;;;48.22;32.30;;;16.20;97.00;;;;;;5030725;28;20052;-75
2023/02/24 09:28:25;;;;;;;47.13;33.22;;;16.20;96.90;;;;;;5030748;28;20052;-74
2023/02/24 09:31:39;;;;;;;48.08;31.48;;;16.40;96.90;;;;;;5030843;28;20056;-71
2023/02/24 09:34:43;;;;;;;51.28;33.42;;;16.40;96.70;;;;;;5030930;28;20608;-73
2023/02/24 09:37:46;;;;;;;44.75;31.60;;;16.50;96.40;;;;;;5030945;28;20044;-71
2023/02/24 09:40:51;;;;;;;45.13;31.45;;;16.60;96.60;;;;;;5030925;28;20132;-73
2023/02/24 09:43:58;;;;;;;57.28;34.92;;;16.80;96.40;;;;;;5030697;28;20397;-74
2023/02/24 09:47:18;;;;;;;45.95;32.20;;;17.00;96.00;;;;;;5031174;28;20487;-73
2023/02/24 09:53:55;;;;;;;61.50;34.90;;;17.10;96.10;;;;;;5030612;28;20040;-70
2023/02/24 09:57:07;;;;;;;44.17;29.75;;;17.30;95.80;;;;;;5030795;28;20056;-70
2023/02/24 10:00:25;;;;;;;45.90;31.58;;;17.20;95.70;;;;;;5030922;28;20496;-73
2023/02/24 10:03:46;;;;;;;48.95;30.10;;;17.10;95.80;;;;;;5030724;28;20040;-72
2023/02/24 10:07:13;;;;;;;48.00;31.00;;;17.10;96.00;;;;;;5035013;28;20053;-70
2023/02/24 10:10:28;;;;;;;40.00;28.65;;;17.20;95.60;;;;;;5034428;28;20060;-73
2023/02/24 10:13:36;;;;;;;36.28;26.83;;;17.30;95.40;;;;;;5034507;28;20048;-71
2023/02/24 10:16:43;;;;;;;38.05;26.15;;;17.60;95.20;;;;;;5035413;28;20499;-70
2023/02/24 10:19:55;;;;;;;41.75;28.13;;;17.80;94.70;;;;;;5035128;28;20048;-72
2023/02/24 10:23:04;;;;;;;38.15;27.05;;;18.00;94.30;;;;;;5034857;28;20068;-72
2023/02/24 10:26:30;;;;;;;34.47;24.83;;;18.10;93.90;;;;;;5034840;28;20052;-72
2023/02/24 10:29:50;;;;;;;30.75;22.42;;;18.30;93.50;;;;;;5034222;28;20064;-72
2023/02/24 10:33:04;;;;;;;30.45;20.60;;;18.40;92.70;;;;;;5033986;28;20075;-72
2023/02/24 10:36:12;;;;;;;32.97;22.75;;;18.40;92.20;;;;;;5033599;28;20044;-72
2023/02/24 10:39:32;;;;;;;33.53;22.95;;;18.50;91.80;;;;;;5033716;28;20523;-72
2023/02/24 10:42:44;;;;;;;36.25;25.33;;;18.60;91.80;;;;;;5034339;28;20041;-72
2023/02/24 10:45:48;;;;;;;33.15;23.60;;;18.60;91.20;;;;;;5033944;28;20168;-70
2023/02/24 10:49:00;;;;;;;35.00;23.60;;;18.60;91.00;;;;;;5033843;28;20041;-71
2023/02/24 10:52:08;;;;;;;33.15;22.38;;;18.50;91.00;;;;;;5033752;28;20064;-71
2023/02/24 10:55:27;;;;;;;30.83;22.52;;;18.30;91.30;;;;;;5034190;28;20044;-71
2023/02/24 11:02:05;;;;;;;39.85;28.38;;;18.60;91.30;;;;;;5034389;28;20563;-72
2023/02/24 11:08:42;;;;;;;39.00;25.92;;;18.60;90.60;;;;;;5033993;28;20053;-73
2023/02/24 11:18:48;;;;;;;41.88;25.92;;;18.50;89.60;;;;;;5047638;28;20048;-73
2023/02/24 11:21:55;;;;;;;36.78;24.27;;;18.50;89.20;;;;;;5047840;28;20056;-72
2023/02/24 11:25:11;;;;;;;36.75;23.20;;;18.50;88.70;;;;;;5046985;28;20064;-73
2023/02/24 11:28:38;;;;;;;44.15;26.92;;;18.50;88.10;;;;;;5047406;28;20048;-73
2023/02/24 11:32:28;;;;;;;37.28;25.02;;;18.40;88.60;;;;;;5046351;28;20052;-73
2023/02/24 11:35:45;;;;;;;44.60;27.27;;;18.20;89.50;;;;;;5046658;28;20052;-72
2023/02/24 11:39:14;;;;;;;41.67;26.30;;;18.20;89.70;;;;;;5046237;28;20048;-72
2023/02/24 11:42:42;;;;;;;44.47;27.70;;;18.20;89.90;;;;;;5047229;28;20035;-72
2023/02/24 11:45:51;;;;;;;44.63;27.02;;;18.10;89.90;;;;;;5042701;28;20302;-72
2023/02/24 11:48:58;;;;;;;47.00;28.67;;;18.20;90.30;;;;;;5033755;28;20064;-72
2023/02/24 11:52:06;;;;;;;40.97;25.77;;;18.20;89.80;;;;;;5033809;28;20508;-72
2023/02/24 11:55:25;;;;;;;33.03;25.42;;;18.20;90.10;;;;;;5033264;28;20044;-72
2023/02/24 11:58:53;;;;;;;33.25;22.05;;;18.20;90.00;;;;;;5033371;28;20056;-71
2023/02/24 12:02:34;;;;;;;40.92;25.33;;;18.30;90.20;;;;;;5032790;28;20517;-71
2023/02/24 12:05:47;;;;;;;29.73;22.40;;;18.40;90.00;;;;;;5031912;28;20405;-70
2023/02/24 12:08:59;;;;;;;31.48;20.60;;;18.40;90.10;;;;;;5032654;28;20048;-70
2023/02/24 12:12:19;;;;;;;38.08;26.27;;;18.50;90.20;;;;;;5032316;28;20072;-71
2023/02/24 12:15:29;;;;;;;34.85;23.08;;;18.50;89.60;;;;;;5032500;28;20044;-71
2023/02/24 12:18:39;;;;;;;40.65;24.48;;;18.50;91.90;;;;;;5031433;28;20044;-70
2023/02/24 12:21:49;;;;;;;57.47;29.25;;;18.50;90.20;;;;;;5032151;28;20060;-72
2023/02/24 12:24:53;;;;;;;44.20;33.38;;;18.40;89.00;;;;;;5032040;28;20064;-71
2023/02/24 12:28:17;;;;;;;43.25;28.83;;;18.40;89.20;;;;;;5029845;28;20099;-72
2023/02/24 12:31:29;;;;;;;43.08;29.15;;;18.40;89.30;;;;;;5031009;28;20397;-73
2023/02/24 12:34:51;;;;;;;40.42;26.63;;;18.30;88.40;;;;;;5031505;28;20060;-72
2023/02/24 12:38:13;;;;;;;50.38;29.15;;;18.20;89.00;;;;;;5031258;28;20504;-71
2023/02/24 12:41:29;;;;;;;47.45;28.63;;;18.20;89.50;;;;;;5031327;28;20045;-73
2023/02/24 12:45:03;;;;;;;39.22;26.92;;;18.20;89.10;;;;;;5031587;28;20045;-72
2023/02/24 12:48:50;;;;;;;48.45;28.63;;;18.20;88.90;;;;;;5030720;28;20049;-72
2023/02/24 12:52:03;;;;;;;45.80;29.33;;;18.20;89.50;;;;;;5031043;28;20394;-71
2023/02/24 12:55:10;;;;;;;38.55;26.75;;;18.20;89.20;;;;;;5031651;28;20052;-72
2023/02/24 12:58:22;;;;;;;46.42;28.23;;;18.20;89.30;;;;;;5031663;28;20067;-72
2023/02/24 13:01:35;;;;;;;34.72;24.65;;;18.20;90.00;;;;;;5031651;28;20056;-72
2023/02/24 13:04:48;;;;;;;48.53;29.17;;;18.20;89.90;;;;;;5031308;28;20060;-72
2023/02/24 13:07:55;;;;;;;42.40;26.42;;;18.30;89.40;;;;;;5031250;28;20504;-72
2023/02/24 13:11:26;;;;;;;38.08;26.75;;;18.30;89.60;;;;;;5031087;28;20057;-71
2023/02/24 13:14:31;;;;;;;;;;;18.40;89.90;;;;;;5031506;28;20147;-71
2023/02/24 13:17:46;;;;;;;27.42;18.08;;;18.40;90.20;;;;;;5031445;28;19912;-71
2023/02/24 13:21:05;;;;;;;24.65;17.65;;;18.40;89.60;;;;;;5031122;28;20389;-71
2023/02/24 13:24:20;;;;;;;23.85;17.00;;;18.40;88.70;;;;;;5030022;28;20060;-72
2023/02/24 13:27:37;;;;;;;22.65;15.70;;;18.40;88.10;;;;;;5027972;28;20072;-71
2023/02/24 13:30:43;;;;;;;25.42;16.90;;;18.40;88.80;;;;;;5029634;28;20064;-72
2023/02/24 13:33:47;;;;;;;22.90;14.75;;;18.40;88.60;;;;;;5029340;28;20069;-72
2023/02/24 13:36:51;;;;;;;19.95;14.25;;;18.50;88.30;;;;;;5030241;28;20057;-72
2023/02/24 13:39:55;;;;;;;24.02;14.77;;;18.40;88.10;;;;;;5034182;28;20048;-74
2023/02/24 13:43:00;;;;;;;29.50;18.48;;;18.40;88.10;;;;;;5034587;28;20056;-70
2023/02/24 13:46:17;;;;;;;22.55;16.55;;;18.40;88.10;;;;;;5034675;28;20373;-72
2023/02/24 13:49:51;;;;;;;15.98;13.10;;;18.40;87.80;;;;;;5034893;28;20044;-72
2023/02/24 13:53:47;;;;;;;16.98;11.95;;;18.40;88.10;;;;;;5034328;28;20045;-72
2023/02/24 13:57:06;;;;;;;14.52;10.68;;;18.40;88.10;;;;;;5031607;28;20041;-70
2023/02/24 14:00:39;;;;;;;15.50;9.38;;;18.30;87.30;;;;;;5033860;28;20052;-71
2023/02/24 14:04:00;;;;;;;13.52;8.15;;;18.30;85.50;;;;;;5034353;28;20056;-71
2023/02/24 14:07:10;;;;;;;14.98;9.13;;;18.30;84.90;;;;;;5034332;28;20512;-72
2023/02/24 14:10:20;;;;;;;18.38;8.57;;;18.30;83.90;;;;;;5034316;28;20041;-71
2023/02/24 14:13:28;;;;;;;12.35;7.25;;;18.30;83.30;;;;;;5034395;28;20048;-72
2023/02/24 14:16:38;;;;;;;11.70;6.75;;;18.30;82.90;;;;;;5034088;28;20588;-72
2023/02/24 14:19:42;;;;;;;14.98;6.90;;;18.20;82.50;;;;;;5033890;28;20432;-72
2023/02/24 14:22:52;;;;;;;12.55;7.50;;;18.20;81.80;;;;;;5033857;28;20056;-72
2023/02/24 14:26:07;;;;;;;11.10;7.10;;;18.20;81.90;;;;;;5033685;28;20060;-72
2023/02/24 14:29:17;;;;;;;12.15;6.65;;;18.10;81.90;;;;;;5033866;28;20056;-72
2023/02/24 14:32:24;;;;;;;9.53;6.30;;;18.10;82.10;;;;;;5033848;28;20044;-71
2023/02/24 14:35:36;;;;;;;28.50;8.90;;;18.10;82.40;;;;;;5034032;28;20279;-72
2023/02/24 14:38:40;;;;;;;14.23;7.25;;;18.10;81.70;;;;;;5032949;28;20048;-72
2023/02/24 14:41:46;;;;;;;12.60;7.20;;;18.00;82.00;;;;;;5033626;28;20045;-71
2023/02/24 14:44:54;;;;;;;24.27;10.10;;;18.00;82.90;;;;;;5033499;28;20057;-72
2023/02/24 14:47:58;;;;;;;17.77;8.43;;;18.00;83.10;;;;;;5033474;28;20044;-72
2023/02/24 14:51:08;;;;;;;10.77;6.70;;;17.90;82.80;;;;;;5032943;28;20052;-71
2023/02/24 14:54:19;;;;;;;13.65;8.43;;;17.90;83.00;;;;;;5033720;28;20044;-72
2023/02/24 14:57:27;;;;;;;9.05;6.20;;;17.90;82.40;;;;;;5033369;28;20401;-72
2023/02/24 15:00:36;;;;;;;12.98;6.63;;;17.90;82.50;;;;;;5033167;28;20045;-72
2023/02/24 15:03:49;;;;;;;10.32;6.10;;;17.90;82.70;;;;;;5032959;28;20052;-72
2023/02/24 15:06:54;;;;;;;13.07;7.38;;;17.90;83.20;;;;;;5032969;28;20069;-72
2023/02/24 15:09:59;;;;;;;13.77;7.45;;;17.80;83.90;;;;;;5032998;28;20048;-72
2023/02/24 15:13:15;;;;;;;11.88;7.00;;;17.80;83.00;;;;;;5033261;28;20052;-73
2023/02/24 15:16:28;;;;;;;22.30;9.30;;;17.80;82.50;;;;;;5033133;28;20048;-79
2023/02/24 15:19:36;;;;;;;15.93;8.77;;;17.70;82.70;;;;;;5033260;28;20052;-74
2023/02/24 15:22:48;;;;;;;18.48;9.77;;;17.70;83.50;;;;;;5032983;28;20056;-75
2023/02/24 15:25:52;;;;;;;17.25;9.90;;;17.70;84.80;;;;;;5033085;28;20052;-75
2023/02/24 15:29:02;;;;;;;17.38;10.10;;;17.60;85.70;;;;;;5033960;28;20037;-76
2023/02/24 15:32:23;;;;;;;18.60;10.73;;;17.60;87.00;;;;;;5033021;28;20056;-75
2023/02/24 15:35:28;;;;;;;17.35;10.00;;;17.60;87.80;;;;;;5033003;28;20056;-73
2023/02/24 15:38:35;;;;;;;17.00;8.90;;;17.50;88.00;;;;;;5032746;28;20048;-71
2023/02/24 15:41:46;;;;;;;21.38;10.73;;;17.50;88.40;;;;;;5032616;28;20044;-74
2023/02/24 15:44:55;;;;;;;21.35;9.82;;;17.50;88.60;;;;;;5032647;28;20045;-72
2023/02/24 15:48:01;;;;;;;17.42;10.48;;;17.40;88.50;;;;;;5032327;28;20052;-75
2023/02/24 15:51:05;;;;;;;15.73;8.43;;;17.40;89.10;;;;;;5032455;28;20065;-74
2023/02/24 15:54:23;;;;;;;18.48;9.27;;;17.40;90.00;;;;;;5032392;28;20543;-73
2023/02/24 15:57:30;;;;;;;22.85;9.48;;;17.30;90.30;;;;;;5032687;28;20052;-71
2023/02/24 16:00:34;;;;;;;20.73;8.98;;;17.30;90.50;;;;;;5032214;28;20045;-72
2023/02/24 16:03:39;;;;;;;15.60;8.85;;;17.20;90.50;;;;;;5032144;28;20052;-72
2023/02/24 16:06:53;;;;;;;19.27;8.88;;;17.20;90.30;;;;;;5032033;28;20048;-71
2023/02/24 16:09:59;;;;;;;18.42;11.40;;;17.10;90.20;;;;;;5032219;28;20044;-73
2023/02/24 16:13:02;;;;;;;23.63;9.57;;;17.00;90.10;;;;;;5032001;28;20048;-73
2023/02/24 16:16:11;;;;;;;23.00;9.52;;;17.00;90.60;;;;;;5031724;28;20056;-73
2023/02/24 16:19:15;;;;;;;22.13;9.30;;;16.90;90.80;;;;;;5031928;28;20496;-74
2023/02/24 16:22:19;;;;;;;19.85;10.20;;;16.80;90.80;;;;;;5031402;28;20064;-76
2023/02/24 16:25:24;;;;;;;28.65;15.57;;;16.80;91.00;;;;;;5031622;28;20628;-74
2023/02/24 16:28:30;;;;;;;52.85;23.63;;;16.70;91.40;;;;;;5031646;28;20044;-73
2023/02/24 16:31:34;;;;;;;39.47;20.52;;;16.70;91.60;;;;;;5031715;28;20052;-74
2023/02/24 16:34:38;;;;;;;42.53;22.17;;;16.60;91.90;;;;;;5031580;28;20052;-74
2023/02/24 16:37:45;;;;;;;44.55;23.33;;;16.50;92.10;;;;;;5030525;28;20041;-75
2023/02/24 16:40:49;;;;;;;34.67;21.40;;;16.50;92.40;;;;;;5031376;28;20501;-74
2023/02/24 16:43:53;;;;;;;39.80;20.23;;;16.40;92.50;;;;;;5032419;28;20050;-74